This is the latest recevied weather packets stored in our database for station/object DB0HOL-4. If no packets are shown the sender has not sent any weather packets the latest 10 day(s).
| Time | Temp. | Humidity | Pressure | Rain* | Wind** | Luminosity | Snow |
|---|---|---|---|---|---|---|---|
| 1777438593 | 5° C | 61% | 1025 hPa | 0 mm | - | 99 W/m² | - |
| 1777436793 | 5.56° C | 60% | 1024.7 hPa | 0 mm | - | 0 W/m² | - |
| 1777434995 | 5.56° C | 60% | 1024.3 hPa | 0 mm | - | 0 W/m² | - |
| 1777433196 | 5.56° C | 61% | 1024.7 hPa | 0 mm | - | 0 W/m² | - |
| 1777431396 | 5.56° C | 62% | 1024.7 hPa | 0 mm | - | 0 W/m² | - |
| 1777429208 | 5° C | 68% | 1024.7 hPa | 0 mm | - | 0 W/m² | - |
| 1777427409 | 5° C | 67% | 1024.3 hPa | 0 mm | - | 0 W/m² | - |
| 1777425610 | 5.56° C | 64% | 1024.7 hPa | 0 mm | - | 0 W/m² | - |
| 1777423811 | 6.11° C | 63% | 1024.7 hPa | 0 mm | - | 0 W/m² | - |
| 1777422011 | 6.11° C | 61% | 1024.7 hPa | 0 mm | - | 0 W/m² | - |
| 1777420213 | 6.67° C | 58% | 1024.3 hPa | 0 mm | - | 0 W/m² | - |
| 1777418414 | 6.67° C | 60% | 1024 hPa | 0 mm | - | 0 W/m² | - |
| 1777413016 | 8.89° C | 50% | 1023.7 hPa | 0 mm | - | 0 W/m² | - |
| 1777411219 | 9.44° C | 49% | 1023.7 hPa | 0 mm | - | 0 W/m² | - |
| 1777409420 | 9.44° C | 49% | 1023.3 hPa | 0 mm | - | 0 W/m² | - |
| 1777407619 | 10° C | 48% | 1023 hPa | 0 mm | - | 0 W/m² | - |
| 1777405819 | 10° C | 46% | 1023 hPa | 0 mm | - | 0 W/m² | - |
| 1777404021 | 10.56° C | 44% | 1022.6 hPa | 0 mm | - | 4 W/m² | - |
| 1777402222 | 11.11° C | 43% | 1022.6 hPa | 0 mm | - | 130 W/m² | - |
| 1777400422 | 11.67° C | 44% | 1022.3 hPa | 0 mm | - | 360 W/m² | - |
| 1777398623 | 12.22° C | 42% | 1022 hPa | 0 mm | - | 784 W/m² | - |
| 1777396825 | 12.78° C | 40% | 1021.6 hPa | 0 mm | - | 152 W/m² | - |
| 1777395025 | 12.78° C | 42% | 1022 hPa | 0 mm | - | 245 W/m² | - |
| 1777393226 | 12.78° C | 44% | 1022 hPa | 0 mm | - | 153 W/m² | - |
| 1777391427 | 12.78° C | 42% | 1022 hPa | 0 mm | - | 383 W/m² | - |
* Rain latest hour (hover to see other rain measurements)
** Current wind speed in m/s (hover to see current wind gust speed)